sensor_id;sensor_type;location;lat;lon;timestamp;P1;durP1;ratioP1;P2;durP2;ratioP2
73684;SDS011;61985;51.070;14.064;2023-01-16T00:02:01;3.10;;;1.40;;
73684;SDS011;61985;51.070;14.064;2023-01-16T00:04:27;3.05;;;1.45;;
73684;SDS011;61985;51.070;14.064;2023-01-16T00:06:52;3.78;;;1.90;;
73684;SDS011;61985;51.070;14.064;2023-01-16T00:09:18;3.85;;;1.90;;
73684;SDS011;61985;51.070;14.064;2023-01-16T00:11:43;4.05;;;1.95;;
73684;SDS011;61985;51.070;14.064;2023-01-16T00:14:09;5.93;;;1.73;;
73684;SDS011;61985;51.070;14.064;2023-01-16T00:16:34;4.70;;;1.40;;
73684;SDS011;61985;51.070;14.064;2023-01-16T00:19:00;2.80;;;1.60;;
73684;SDS011;61985;51.070;14.064;2023-01-16T00:21:26;5.68;;;1.95;;
73684;SDS011;61985;51.070;14.064;2023-01-16T00:23:55;2.90;;;1.50;;
73684;SDS011;61985;51.070;14.064;2023-01-16T00:26:22;4.43;;;1.70;;
73684;SDS011;61985;51.070;14.064;2023-01-16T00:28:49;3.67;;;1.83;;
73684;SDS011;61985;51.070;14.064;2023-01-16T00:31:14;3.80;;;1.70;;
73684;SDS011;61985;51.070;14.064;2023-01-16T00:33:40;2.95;;;1.90;;
73684;SDS011;61985;51.070;14.064;2023-01-16T00:36:07;3.30;;;1.85;;
73684;SDS011;61985;51.070;14.064;2023-01-16T00:38:33;8.32;;;1.90;;
73684;SDS011;61985;51.070;14.064;2023-01-16T00:40:58;4.35;;;2.28;;
73684;SDS011;61985;51.070;14.064;2023-01-16T00:43:23;4.93;;;2.15;;
73684;SDS011;61985;51.070;14.064;2023-01-16T00:45:49;6.78;;;1.92;;
73684;SDS011;61985;51.070;14.064;2023-01-16T00:48:14;4.20;;;2.10;;
73684;SDS011;61985;51.070;14.064;2023-01-16T00:50:40;3.10;;;1.70;;
73684;SDS011;61985;51.070;14.064;2023-01-16T00:53:05;6.93;;;2.30;;
73684;SDS011;61985;51.070;14.064;2023-01-16T00:55:32;4.05;;;2.15;;
73684;SDS011;61985;51.070;14.064;2023-01-16T00:57:59;4.63;;;2.28;;
73684;SDS011;61985;51.070;14.064;2023-01-16T01:00:24;5.15;;;2.17;;
73684;SDS011;61985;51.070;14.064;2023-01-16T01:02:50;4.45;;;2.13;;
73684;SDS011;61985;51.070;14.064;2023-01-16T01:05:16;2.97;;;1.90;;
73684;SDS011;61985;51.070;14.064;2023-01-16T01:07:41;5.07;;;2.13;;
73684;SDS011;61985;51.070;14.064;2023-01-16T01:10:07;4.43;;;1.80;;
73684;SDS011;61985;51.070;14.064;2023-01-16T01:12:33;5.63;;;2.00;;
73684;SDS011;61985;51.070;14.064;2023-01-16T01:14:59;5.78;;;2.25;;
73684;SDS011;61985;51.070;14.064;2023-01-16T01:17:24;5.35;;;1.90;;
73684;SDS011;61985;51.070;14.064;2023-01-16T01:19:49;3.40;;;1.88;;
73684;SDS011;61985;51.070;14.064;2023-01-16T01:22:15;3.90;;;1.48;;
73684;SDS011;61985;51.070;14.064;2023-01-16T01:24:46;3.70;;;1.80;;
73684;SDS011;61985;51.070;14.064;2023-01-16T01:27:13;5.53;;;1.85;;
73684;SDS011;61985;51.070;14.064;2023-01-16T01:29:38;4.68;;;1.65;;
73684;SDS011;61985;51.070;14.064;2023-01-16T01:32:04;4.45;;;1.77;;
73684;SDS011;61985;51.070;14.064;2023-01-16T01:34:30;2.88;;;1.60;;
73684;SDS011;61985;51.070;14.064;2023-01-16T01:36:58;6.35;;;2.28;;
73684;SDS011;61985;51.070;14.064;2023-01-16T01:39:24;5.75;;;1.95;;
73684;SDS011;61985;51.070;14.064;2023-01-16T01:41:50;6.57;;;2.25;;
73684;SDS011;61985;51.070;14.064;2023-01-16T01:44:41;5.18;;;2.10;;
73684;SDS011;61985;51.070;14.064;2023-01-16T01:47:26;5.03;;;2.42;;
73684;SDS011;61985;51.070;14.064;2023-01-16T01:49:55;3.17;;;1.73;;
73684;SDS011;61985;51.070;14.064;2023-01-16T01:52:23;6.10;;;2.08;;
73684;SDS011;61985;51.070;14.064;2023-01-16T01:54:53;4.57;;;1.90;;
73684;SDS011;61985;51.070;14.064;2023-01-16T01:57:25;4.55;;;1.73;;
73684;SDS011;61985;51.070;14.064;2023-01-16T02:00:03;2.50;;;1.52;;
73684;SDS011;61985;51.070;14.064;2023-01-16T02:02:33;3.70;;;1.70;;
73684;SDS011;61985;51.070;14.064;2023-01-16T02:05:04;4.50;;;1.80;;
73684;SDS011;61985;51.070;14.064;2023-01-16T02:07:31;2.58;;;1.50;;
73684;SDS011;61985;51.070;14.064;2023-01-16T02:10:01;2.92;;;1.60;;
73684;SDS011;61985;51.070;14.064;2023-01-16T02:12:34;2.80;;;1.60;;
73684;SDS011;61985;51.070;14.064;2023-01-16T02:15:00;4.63;;;1.52;;
73684;SDS011;61985;51.070;14.064;2023-01-16T02:17:26;4.80;;;1.83;;
73684;SDS011;61985;51.070;14.064;2023-01-16T02:20:16;4.18;;;1.80;;
73684;SDS011;61985;51.070;14.064;2023-01-16T02:28:39;3.42;;;1.85;;
73684;SDS011;61985;51.070;14.064;2023-01-16T02:45:16;3.55;;;1.75;;
73684;SDS011;61985;51.070;14.064;2023-01-16T02:47:49;3.80;;;1.77;;
73684;SDS011;61985;51.070;14.064;2023-01-16T02:53:16;3.85;;;1.50;;
73684;SDS011;61985;51.070;14.064;2023-01-16T02:55:47;3.83;;;1.50;;
73684;SDS011;61985;51.070;14.064;2023-01-16T02:58:18;6.13;;;1.87;;
73684;SDS011;61985;51.070;14.064;2023-01-16T03:00:49;3.50;;;1.50;;
73684;SDS011;61985;51.070;14.064;2023-01-16T03:06:27;1.90;;;1.30;;
73684;SDS011;61985;51.070;14.064;2023-01-16T03:11:30;2.58;;;1.08;;
73684;SDS011;61985;51.070;14.064;2023-01-16T03:19:29;2.92;;;1.35;;
73684;SDS011;61985;51.070;14.064;2023-01-16T03:22:31;2.85;;;1.20;;
73684;SDS011;61985;51.070;14.064;2023-01-16T03:27:54;7.13;;;1.30;;
73684;SDS011;61985;51.070;14.064;2023-01-16T03:36:29;6.22;;;1.75;;
73684;SDS011;61985;51.070;14.064;2023-01-16T03:38:59;3.03;;;1.10;;
73684;SDS011;61985;51.070;14.064;2023-01-16T03:41:28;8.45;;;1.35;;
73684;SDS011;61985;51.070;14.064;2023-01-16T03:43:59;4.55;;;1.13;;
73684;SDS011;61985;51.070;14.064;2023-01-16T03:46:31;6.30;;;1.20;;
73684;SDS011;61985;51.070;14.064;2023-01-16T03:49:03;4.57;;;1.10;;
73684;SDS011;61985;51.070;14.064;2023-01-16T03:51:33;2.60;;;1.27;;
73684;SDS011;61985;51.070;14.064;2023-01-16T03:54:04;2.67;;;1.15;;
73684;SDS011;61985;51.070;14.064;2023-01-16T03:59:14;5.15;;;1.15;;
73684;SDS011;61985;51.070;14.064;2023-01-16T04:07:04;2.75;;;1.40;;
73684;SDS011;61985;51.070;14.064;2023-01-16T04:12:03;3.35;;;1.10;;
73684;SDS011;61985;51.070;14.064;2023-01-16T04:14:30;3.33;;;1.45;;
73684;SDS011;61985;51.070;14.064;2023-01-16T04:16:57;1.60;;;1.20;;
73684;SDS011;61985;51.070;14.064;2023-01-16T04:19:23;1.50;;;1.13;;
73684;SDS011;61985;51.070;14.064;2023-01-16T04:21:50;3.55;;;1.05;;
73684;SDS011;61985;51.070;14.064;2023-01-16T04:24:15;2.55;;;1.27;;
73684;SDS011;61985;51.070;14.064;2023-01-16T04:26:41;2.88;;;1.42;;
73684;SDS011;61985;51.070;14.064;2023-01-16T04:29:07;2.22;;;1.20;;
73684;SDS011;61985;51.070;14.064;2023-01-16T04:31:32;3.13;;;1.48;;
73684;SDS011;61985;51.070;14.064;2023-01-16T04:33:58;4.53;;;1.42;;
73684;SDS011;61985;51.070;14.064;2023-01-16T04:36:23;2.75;;;1.40;;
73684;SDS011;61985;51.070;14.064;2023-01-16T04:38:48;4.43;;;1.52;;
73684;SDS011;61985;51.070;14.064;2023-01-16T04:41:14;2.35;;;1.30;;
73684;SDS011;61985;51.070;14.064;2023-01-16T04:44:00;5.35;;;2.05;;
73684;SDS011;61985;51.070;14.064;2023-01-16T04:46:26;2.90;;;1.60;;
73684;SDS011;61985;51.070;14.064;2023-01-16T04:48:52;3.55;;;1.70;;
73684;SDS011;61985;51.070;14.064;2023-01-16T04:51:17;3.95;;;1.52;;
73684;SDS011;61985;51.070;14.064;2023-01-16T04:53:42;5.35;;;1.38;;
73684;SDS011;61985;51.070;14.064;2023-01-16T04:56:08;5.00;;;1.63;;
73684;SDS011;61985;51.070;14.064;2023-01-16T04:58:33;6.30;;;1.73;;
73684;SDS011;61985;51.070;14.064;2023-01-16T05:00:58;4.15;;;1.25;;
73684;SDS011;61985;51.070;14.064;2023-01-16T05:03:23;4.75;;;1.48;;
73684;SDS011;61985;51.070;14.064;2023-01-16T05:05:49;2.72;;;1.20;;
73684;SDS011;61985;51.070;14.064;2023-01-16T05:08:14;4.28;;;1.40;;
73684;SDS011;61985;51.070;14.064;2023-01-16T05:10:42;5.65;;;1.52;;
73684;SDS011;61985;51.070;14.064;2023-01-16T05:13:08;2.60;;;1.23;;
73684;SDS011;61985;51.070;14.064;2023-01-16T05:15:33;3.35;;;1.75;;
73684;SDS011;61985;51.070;14.064;2023-01-16T05:17:59;4.22;;;1.67;;
73684;SDS011;61985;51.070;14.064;2023-01-16T05:20:24;3.30;;;1.45;;
73684;SDS011;61985;51.070;14.064;2023-01-16T05:22:49;6.82;;;1.90;;
73684;SDS011;61985;51.070;14.064;2023-01-16T05:25:15;3.20;;;1.40;;
73684;SDS011;61985;51.070;14.064;2023-01-16T05:27:40;4.80;;;1.40;;
73684;SDS011;61985;51.070;14.064;2023-01-16T05:30:05;2.47;;;1.30;;
73684;SDS011;61985;51.070;14.064;2023-01-16T05:32:31;4.60;;;1.95;;
73684;SDS011;61985;51.070;14.064;2023-01-16T05:34:57;2.92;;;1.42;;
73684;SDS011;61985;51.070;14.064;2023-01-16T05:37:25;3.65;;;1.40;;
73684;SDS011;61985;51.070;14.064;2023-01-16T05:39:51;5.03;;;1.60;;
73684;SDS011;61985;51.070;14.064;2023-01-16T05:42:16;5.00;;;1.33;;
73684;SDS011;61985;51.070;14.064;2023-01-16T05:44:49;3.95;;;1.60;;
73684;SDS011;61985;51.070;14.064;2023-01-16T05:47:18;4.45;;;1.77;;
73684;SDS011;61985;51.070;14.064;2023-01-16T05:49:44;4.30;;;1.65;;
73684;SDS011;61985;51.070;14.064;2023-01-16T05:52:09;3.38;;;1.55;;
73684;SDS011;61985;51.070;14.064;2023-01-16T05:54:35;3.88;;;1.90;;
73684;SDS011;61985;51.070;14.064;2023-01-16T05:57:00;2.28;;;1.38;;
73684;SDS011;61985;51.070;14.064;2023-01-16T05:59:25;4.57;;;1.83;;
73684;SDS011;61985;51.070;14.064;2023-01-16T06:01:51;2.22;;;1.48;;
73684;SDS011;61985;51.070;14.064;2023-01-16T06:04:16;6.10;;;1.52;;
73684;SDS011;61985;51.070;14.064;2023-01-16T06:06:44;4.35;;;2.03;;
73684;SDS011;61985;51.070;14.064;2023-01-16T06:09:10;5.97;;;1.95;;
73684;SDS011;61985;51.070;14.064;2023-01-16T06:11:35;6.03;;;1.73;;
73684;SDS011;61985;51.070;14.064;2023-01-16T06:14:00;5.97;;;1.83;;
73684;SDS011;61985;51.070;14.064;2023-01-16T06:16:28;4.30;;;1.40;;
73684;SDS011;61985;51.070;14.064;2023-01-16T06:18:54;3.38;;;1.60;;
73684;SDS011;61985;51.070;14.064;2023-01-16T06:21:19;4.75;;;1.55;;
73684;SDS011;61985;51.070;14.064;2023-01-16T06:23:45;4.88;;;1.23;;
73684;SDS011;61985;51.070;14.064;2023-01-16T06:26:10;5.05;;;1.67;;
73684;SDS011;61985;51.070;14.064;2023-01-16T06:28:36;4.22;;;1.90;;
73684;SDS011;61985;51.070;14.064;2023-01-16T06:31:02;5.05;;;1.60;;
73684;SDS011;61985;51.070;14.064;2023-01-16T06:33:28;4.65;;;1.70;;
73684;SDS011;61985;51.070;14.064;2023-01-16T06:35:53;3.67;;;1.33;;
73684;SDS011;61985;51.070;14.064;2023-01-16T06:38:19;4.35;;;1.42;;
73684;SDS011;61985;51.070;14.064;2023-01-16T06:40:44;1.67;;;1.05;;
73684;SDS011;61985;51.070;14.064;2023-01-16T06:43:10;5.25;;;1.67;;
73684;SDS011;61985;51.070;14.064;2023-01-16T06:45:36;4.05;;;1.20;;
73684;SDS011;61985;51.070;14.064;2023-01-16T06:48:01;5.15;;;2.13;;
73684;SDS011;61985;51.070;14.064;2023-01-16T06:50:28;3.67;;;2.08;;
73684;SDS011;61985;51.070;14.064;2023-01-16T06:52:53;3.75;;;2.00;;
73684;SDS011;61985;51.070;14.064;2023-01-16T06:55:18;5.00;;;1.60;;
73684;SDS011;61985;51.070;14.064;2023-01-16T06:57:44;3.10;;;1.40;;
73684;SDS011;61985;51.070;14.064;2023-01-16T07:00:10;3.70;;;1.17;;
73684;SDS011;61985;51.070;14.064;2023-01-16T07:02:35;3.10;;;1.40;;
73684;SDS011;61985;51.070;14.064;2023-01-16T07:05:05;4.05;;;1.45;;
73684;SDS011;61985;51.070;14.064;2023-01-16T07:07:34;3.80;;;1.60;;
73684;SDS011;61985;51.070;14.064;2023-01-16T07:09:59;4.18;;;1.50;;
73684;SDS011;61985;51.070;14.064;2023-01-16T07:12:25;3.45;;;1.20;;
73684;SDS011;61985;51.070;14.064;2023-01-16T07:14:50;5.45;;;1.75;;
73684;SDS011;61985;51.070;14.064;2023-01-16T07:17:34;3.83;;;1.60;;
73684;SDS011;61985;51.070;14.064;2023-01-16T07:20:18;7.25;;;2.05;;
73684;SDS011;61985;51.070;14.064;2023-01-16T07:23:10;5.22;;;1.67;;
73684;SDS011;61985;51.070;14.064;2023-01-16T07:25:40;6.28;;;1.27;;
73684;SDS011;61985;51.070;14.064;2023-01-16T07:28:06;3.42;;;1.50;;
73684;SDS011;61985;51.070;14.064;2023-01-16T07:30:31;5.28;;;1.60;;
73684;SDS011;61985;51.070;14.064;2023-01-16T07:32:57;3.67;;;1.67;;
73684;SDS011;61985;51.070;14.064;2023-01-16T07:35:22;3.15;;;1.50;;
73684;SDS011;61985;51.070;14.064;2023-01-16T07:37:47;4.95;;;1.55;;
73684;SDS011;61985;51.070;14.064;2023-01-16T07:40:25;6.28;;;1.67;;
73684;SDS011;61985;51.070;14.064;2023-01-16T07:42:50;4.88;;;1.88;;
73684;SDS011;61985;51.070;14.064;2023-01-16T07:45:16;4.05;;;1.58;;
73684;SDS011;61985;51.070;14.064;2023-01-16T07:47:41;3.38;;;1.50;;
73684;SDS011;61985;51.070;14.064;2023-01-16T07:50:07;4.65;;;1.73;;
73684;SDS011;61985;51.070;14.064;2023-01-16T07:52:32;4.05;;;1.70;;
73684;SDS011;61985;51.070;14.064;2023-01-16T07:54:58;4.05;;;1.52;;
73684;SDS011;61985;51.070;14.064;2023-01-16T07:57:23;4.47;;;1.85;;
73684;SDS011;61985;51.070;14.064;2023-01-16T07:59:50;3.72;;;1.80;;
73684;SDS011;61985;51.070;14.064;2023-01-16T08:02:15;4.68;;;1.60;;
73684;SDS011;61985;51.070;14.064;2023-01-16T08:04:41;3.90;;;1.80;;
73684;SDS011;61985;51.070;14.064;2023-01-16T08:07:06;4.72;;;1.70;;
73684;SDS011;61985;51.070;14.064;2023-01-16T08:09:31;4.13;;;1.60;;
73684;SDS011;61985;51.070;14.064;2023-01-16T08:11:57;7.43;;;2.10;;
73684;SDS011;61985;51.070;14.064;2023-01-16T08:14:22;3.55;;;1.27;;
73684;SDS011;61985;51.070;14.064;2023-01-16T08:16:51;4.53;;;1.90;;
73684;SDS011;61985;51.070;14.064;2023-01-16T08:19:16;3.78;;;1.38;;
73684;SDS011;61985;51.070;14.064;2023-01-16T08:21:41;5.05;;;1.00;;
73684;SDS011;61985;51.070;14.064;2023-01-16T08:24:07;1.95;;;1.00;;
73684;SDS011;61985;51.070;14.064;2023-01-16T08:26:33;3.38;;;1.00;;
73684;SDS011;61985;51.070;14.064;2023-01-16T08:28:58;3.97;;;1.52;;
73684;SDS011;61985;51.070;14.064;2023-01-16T08:31:24;2.20;;;0.95;;
73684;SDS011;61985;51.070;14.064;2023-01-16T08:33:50;7.93;;;1.13;;
73684;SDS011;61985;51.070;14.064;2023-01-16T08:36:15;3.85;;;1.10;;
73684;SDS011;61985;51.070;14.064;2023-01-16T08:38:41;1.10;;;1.00;;
73684;SDS011;61985;51.070;14.064;2023-01-16T08:41:08;3.13;;;1.00;;
73684;SDS011;61985;51.070;14.064;2023-01-16T08:43:53;3.08;;;0.95;;
73684;SDS011;61985;51.070;14.064;2023-01-16T08:46:37;1.35;;;0.90;;
73684;SDS011;61985;51.070;14.064;2023-01-16T08:49:22;1.65;;;0.98;;
73684;SDS011;61985;51.070;14.064;2023-01-16T08:52:06;5.43;;;1.65;;
73684;SDS011;61985;51.070;14.064;2023-01-16T08:54:32;23.35;;;7.38;;
73684;SDS011;61985;51.070;14.064;2023-01-16T08:56:58;22.58;;;8.68;;
73684;SDS011;61985;51.070;14.064;2023-01-16T08:59:23;17.98;;;5.90;;
73684;SDS011;61985;51.070;14.064;2023-01-16T09:01:49;9.15;;;3.35;;
73684;SDS011;61985;51.070;14.064;2023-01-16T09:04:14;7.03;;;2.83;;
73684;SDS011;61985;51.070;14.064;2023-01-16T09:06:39;5.32;;;1.80;;
73684;SDS011;61985;51.070;14.064;2023-01-16T09:09:05;3.75;;;1.85;;
73684;SDS011;61985;51.070;14.064;2023-01-16T09:11:32;3.83;;;1.60;;
73684;SDS011;61985;51.070;14.064;2023-01-16T09:14:19;6.15;;;1.48;;
73684;SDS011;61985;51.070;14.064;2023-01-16T09:16:45;3.90;;;1.20;;
73684;SDS011;61985;51.070;14.064;2023-01-16T09:19:10;2.40;;;1.20;;
73684;SDS011;61985;51.070;14.064;2023-01-16T09:21:36;3.90;;;1.55;;
73684;SDS011;61985;51.070;14.064;2023-01-16T09:24:01;4.20;;;1.48;;
73684;SDS011;61985;51.070;14.064;2023-01-16T09:26:27;5.40;;;1.25;;
73684;SDS011;61985;51.070;14.064;2023-01-16T09:28:53;7.03;;;1.80;;
73684;SDS011;61985;51.070;14.064;2023-01-16T09:31:18;4.07;;;1.45;;
73684;SDS011;61985;51.070;14.064;2023-01-16T09:33:44;3.97;;;1.70;;
73684;SDS011;61985;51.070;14.064;2023-01-16T09:36:10;4.43;;;1.77;;
73684;SDS011;61985;51.070;14.064;2023-01-16T09:38:36;6.38;;;1.52;;
73684;SDS011;61985;51.070;14.064;2023-01-16T09:41:01;9.48;;;2.50;;
73684;SDS011;61985;51.070;14.064;2023-01-16T09:46:04;10.68;;;2.25;;
73684;SDS011;61985;51.070;14.064;2023-01-16T09:48:36;13.07;;;2.50;;
73684;SDS011;61985;51.070;14.064;2023-01-16T09:51:11;18.92;;;4.63;;
73684;SDS011;61985;51.070;14.064;2023-01-16T09:56:41;9.27;;;2.17;;
73684;SDS011;61985;51.070;14.064;2023-01-16T09:59:33;3.75;;;1.50;;
73684;SDS011;61985;51.070;14.064;2023-01-16T10:04:36;6.32;;;2.30;;
73684;SDS011;61985;51.070;14.064;2023-01-16T10:12:56;11.10;;;2.90;;
73684;SDS011;61985;51.070;14.064;2023-01-16T10:26:23;3.13;;;0.82;;
73684;SDS011;61985;51.070;14.064;2023-01-16T10:32:13;3.50;;;1.40;;
73684;SDS011;61985;51.070;14.064;2023-01-16T10:37:21;2.92;;;1.42;;
73684;SDS011;61985;51.070;14.064;2023-01-16T10:39:47;3.45;;;1.00;;
73684;SDS011;61985;51.070;14.064;2023-01-16T10:42:16;4.28;;;0.90;;
73684;SDS011;61985;51.070;14.064;2023-01-16T10:47:58;5.72;;;1.52;;
73684;SDS011;61985;51.070;14.064;2023-01-16T10:50:43;3.65;;;1.40;;
73684;SDS011;61985;51.070;14.064;2023-01-16T10:53:11;3.13;;;0.70;;
73684;SDS011;61985;51.070;14.064;2023-01-16T10:55:38;4.10;;;1.02;;
73684;SDS011;61985;51.070;14.064;2023-01-16T10:58:11;2.30;;;0.85;;
73684;SDS011;61985;51.070;14.064;2023-01-16T11:00:46;5.88;;;1.15;;
73684;SDS011;61985;51.070;14.064;2023-01-16T11:03:14;2.63;;;1.02;;
73684;SDS011;61985;51.070;14.064;2023-01-16T11:05:43;1.83;;;0.85;;
73684;SDS011;61985;51.070;14.064;2023-01-16T11:08:16;4.63;;;1.23;;
73684;SDS011;61985;51.070;14.064;2023-01-16T11:10:44;4.03;;;1.10;;
73684;SDS011;61985;51.070;14.064;2023-01-16T11:13:16;1.95;;;0.93;;
73684;SDS011;61985;51.070;14.064;2023-01-16T11:18:57;2.33;;;1.00;;
73684;SDS011;61985;51.070;14.064;2023-01-16T11:21:24;3.00;;;0.70;;
73684;SDS011;61985;51.070;14.064;2023-01-16T11:24:28;4.90;;;1.30;;
73684;SDS011;61985;51.070;14.064;2023-01-16T11:26:48;5.00;;;1.67;;
73684;SDS011;61985;51.070;14.064;2023-01-16T11:29:16;6.90;;;1.70;;
73684;SDS011;61985;51.070;14.064;2023-01-16T11:31:42;6.47;;;1.73;;
73684;SDS011;61985;51.070;14.064;2023-01-16T11:34:13;4.77;;;1.30;;
73684;SDS011;61985;51.070;14.064;2023-01-16T11:36:40;3.20;;;1.27;;
73684;SDS011;61985;51.070;14.064;2023-01-16T11:39:06;4.25;;;1.00;;
73684;SDS011;61985;51.070;14.064;2023-01-16T11:41:45;1.25;;;0.80;;
73684;SDS011;61985;51.070;14.064;2023-01-16T11:44:19;8.20;;;1.88;;
73684;SDS011;61985;51.070;14.064;2023-01-16T11:47:09;4.67;;;1.47;;
73684;SDS011;61985;51.070;14.064;2023-01-16T11:49:41;5.50;;;2.03;;
73684;SDS011;61985;51.070;14.064;2023-01-16T11:52:15;5.25;;;1.55;;
73684;SDS011;61985;51.070;14.064;2023-01-16T11:54:55;4.85;;;1.50;;
73684;SDS011;61985;51.070;14.064;2023-01-16T12:03:23;2.97;;;1.25;;
73684;SDS011;61985;51.070;14.064;2023-01-16T12:06:12;7.50;;;2.15;;
73684;SDS011;61985;51.070;14.064;2023-01-16T12:11:26;5.78;;;1.98;;
73684;SDS011;61985;51.070;14.064;2023-01-16T12:14:24;5.28;;;1.77;;
73684;SDS011;61985;51.070;14.064;2023-01-16T12:43:31;5.55;;;1.50;;
73684;SDS011;61985;51.070;14.064;2023-01-16T12:46:10;4.15;;;1.45;;
73684;SDS011;61985;51.070;14.064;2023-01-16T12:48:46;3.00;;;1.20;;
73684;SDS011;61985;51.070;14.064;2023-01-16T12:51:31;4.32;;;1.50;;
73684;SDS011;61985;51.070;14.064;2023-01-16T12:54:23;4.15;;;1.55;;
73684;SDS011;61985;51.070;14.064;2023-01-16T12:59:49;3.20;;;1.20;;
73684;SDS011;61985;51.070;14.064;2023-01-16T13:05:10;5.40;;;1.83;;
73684;SDS011;61985;51.070;14.064;2023-01-16T13:07:44;3.22;;;1.50;;
73684;SDS011;61985;51.070;14.064;2023-01-16T13:10:19;2.45;;;1.10;;
73684;SDS011;61985;51.070;14.064;2023-01-16T13:13:10;6.35;;;1.38;;
73684;SDS011;61985;51.070;14.064;2023-01-16T13:15:50;3.20;;;1.30;;
73684;SDS011;61985;51.070;14.064;2023-01-16T13:18:22;2.63;;;1.10;;
73684;SDS011;61985;51.070;14.064;2023-01-16T13:20:52;5.50;;;1.92;;
73684;SDS011;61985;51.070;14.064;2023-01-16T13:23:22;4.13;;;1.48;;
73684;SDS011;61985;51.070;14.064;2023-01-16T13:25:50;3.95;;;0.95;;
73684;SDS011;61985;51.070;14.064;2023-01-16T13:28:29;2.90;;;1.08;;
73684;SDS011;61985;51.070;14.064;2023-01-16T13:31:17;2.40;;;1.10;;
73684;SDS011;61985;51.070;14.064;2023-01-16T13:33:51;4.50;;;1.20;;
73684;SDS011;61985;51.070;14.064;2023-01-16T13:36:33;4.10;;;1.40;;
73684;SDS011;61985;51.070;14.064;2023-01-16T13:39:17;2.15;;;1.13;;
73684;SDS011;61985;51.070;14.064;2023-01-16T13:42:01;3.58;;;1.17;;
73684;SDS011;61985;51.070;14.064;2023-01-16T13:44:30;4.40;;;1.58;;
73684;SDS011;61985;51.070;14.064;2023-01-16T13:47:23;4.95;;;1.50;;
73684;SDS011;61985;51.070;14.064;2023-01-16T13:49:54;6.75;;;1.67;;
73684;SDS011;61985;51.070;14.064;2023-01-16T13:52:27;3.15;;;1.40;;
73684;SDS011;61985;51.070;14.064;2023-01-16T13:54:54;1.63;;;1.10;;
73684;SDS011;61985;51.070;14.064;2023-01-16T13:57:22;3.70;;;1.75;;
73684;SDS011;61985;51.070;14.064;2023-01-16T14:00:09;2.22;;;1.20;;
73684;SDS011;61985;51.070;14.064;2023-01-16T14:10:45;5.00;;;1.98;;
73684;SDS011;61985;51.070;14.064;2023-01-16T14:13:20;9.43;;;2.40;;
73684;SDS011;61985;51.070;14.064;2023-01-16T14:23:42;7.55;;;2.83;;
73684;SDS011;61985;51.070;14.064;2023-01-16T14:29:20;11.43;;;3.88;;
73684;SDS011;61985;51.070;14.064;2023-01-16T14:34:32;8.27;;;3.20;;
73684;SDS011;61985;51.070;14.064;2023-01-16T14:37:27;10.52;;;3.58;;
73684;SDS011;61985;51.070;14.064;2023-01-16T14:40:03;13.57;;;3.80;;
73684;SDS011;61985;51.070;14.064;2023-01-16T14:42:48;15.02;;;5.45;;
73684;SDS011;61985;51.070;14.064;2023-01-16T14:45:35;21.38;;;6.50;;
73684;SDS011;61985;51.070;14.064;2023-01-16T14:51:11;3.03;;;1.50;;
73684;SDS011;61985;51.070;14.064;2023-01-16T15:07:07;9.88;;;2.20;;
73684;SDS011;61985;51.070;14.064;2023-01-16T15:09:32;5.68;;;1.73;;
73684;SDS011;61985;51.070;14.064;2023-01-16T15:14:24;5.28;;;1.80;;
73684;SDS011;61985;51.070;14.064;2023-01-16T15:17:00;4.38;;;1.60;;
73684;SDS011;61985;51.070;14.064;2023-01-16T15:22:58;3.65;;;1.52;;
73684;SDS011;61985;51.070;14.064;2023-01-16T15:25:27;3.72;;;1.35;;
73684;SDS011;61985;51.070;14.064;2023-01-16T15:28:16;2.50;;;1.42;;
73684;SDS011;61985;51.070;14.064;2023-01-16T15:31:16;3.58;;;1.50;;
73684;SDS011;61985;51.070;14.064;2023-01-16T15:33:57;3.90;;;1.45;;
73684;SDS011;61985;51.070;14.064;2023-01-16T15:36:44;3.55;;;1.48;;
73684;SDS011;61985;51.070;14.064;2023-01-16T15:39:21;3.17;;;1.35;;
73684;SDS011;61985;51.070;14.064;2023-01-16T15:41:54;3.28;;;1.48;;
73684;SDS011;61985;51.070;14.064;2023-01-16T15:44:46;5.63;;;1.60;;
73684;SDS011;61985;51.070;14.064;2023-01-16T15:53:25;6.20;;;1.40;;
73684;SDS011;61985;51.070;14.064;2023-01-16T15:56:04;4.03;;;1.40;;
73684;SDS011;61985;51.070;14.064;2023-01-16T15:58:31;4.22;;;1.52;;
73684;SDS011;61985;51.070;14.064;2023-01-16T16:01:01;6.60;;;2.72;;
73684;SDS011;61985;51.070;14.064;2023-01-16T16:03:38;5.40;;;2.20;;
73684;SDS011;61985;51.070;14.064;2023-01-16T16:06:08;1.83;;;1.40;;
73684;SDS011;61985;51.070;14.064;2023-01-16T16:08:37;5.68;;;1.92;;
73684;SDS011;61985;51.070;14.064;2023-01-16T16:11:06;5.65;;;2.20;;
73684;SDS011;61985;51.070;14.064;2023-01-16T16:13:52;6.35;;;2.45;;
73684;SDS011;61985;51.070;14.064;2023-01-16T16:16:23;4.07;;;1.48;;
73684;SDS011;61985;51.070;14.064;2023-01-16T16:19:10;5.95;;;1.83;;
73684;SDS011;61985;51.070;14.064;2023-01-16T16:21:55;7.10;;;1.92;;
73684;SDS011;61985;51.070;14.064;2023-01-16T16:24:41;6.35;;;2.70;;
73684;SDS011;61985;51.070;14.064;2023-01-16T16:27:07;7.72;;;2.17;;
73684;SDS011;61985;51.070;14.064;2023-01-16T16:29:36;6.97;;;2.92;;
73684;SDS011;61985;51.070;14.064;2023-01-16T16:32:06;6.13;;;2.55;;
73684;SDS011;61985;51.070;14.064;2023-01-16T16:34:40;6.38;;;1.80;;
73684;SDS011;61985;51.070;14.064;2023-01-16T16:37:14;5.78;;;1.88;;
73684;SDS011;61985;51.070;14.064;2023-01-16T16:39:45;7.80;;;2.38;;
73684;SDS011;61985;51.070;14.064;2023-01-16T16:47:41;5.93;;;2.55;;
73684;SDS011;61985;51.070;14.064;2023-01-16T16:52:45;6.30;;;2.10;;
73684;SDS011;61985;51.070;14.064;2023-01-16T16:57:59;7.32;;;2.25;;
73684;SDS011;61985;51.070;14.064;2023-01-16T17:00:28;4.88;;;1.90;;
73684;SDS011;61985;51.070;14.064;2023-01-16T17:03:02;3.17;;;1.52;;
73684;SDS011;61985;51.070;14.064;2023-01-16T17:05:30;4.57;;;1.75;;
73684;SDS011;61985;51.070;14.064;2023-01-16T17:36:23;6.13;;;2.13;;
73684;SDS011;61985;51.070;14.064;2023-01-16T17:38:49;5.78;;;2.00;;
73684;SDS011;61985;51.070;14.064;2023-01-16T17:41:16;4.63;;;2.20;;
73684;SDS011;61985;51.070;14.064;2023-01-16T17:43:46;7.05;;;2.33;;
73684;SDS011;61985;51.070;14.064;2023-01-16T17:46:30;4.28;;;1.80;;
73684;SDS011;61985;51.070;14.064;2023-01-16T17:48:55;5.28;;;2.00;;
73684;SDS011;61985;51.070;14.064;2023-01-16T17:51:21;6.43;;;2.42;;
73684;SDS011;61985;51.070;14.064;2023-01-16T17:53:49;8.02;;;2.40;;
73684;SDS011;61985;51.070;14.064;2023-01-16T17:56:15;3.22;;;1.70;;
73684;SDS011;61985;51.070;14.064;2023-01-16T17:58:43;4.25;;;2.10;;
73684;SDS011;61985;51.070;14.064;2023-01-16T18:01:21;6.22;;;1.88;;
73684;SDS011;61985;51.070;14.064;2023-01-16T18:03:51;5.82;;;1.92;;
73684;SDS011;61985;51.070;14.064;2023-01-16T18:06:39;4.70;;;1.88;;
73684;SDS011;61985;51.070;14.064;2023-01-16T18:09:06;4.95;;;2.03;;
73684;SDS011;61985;51.070;14.064;2023-01-16T18:11:34;7.40;;;1.95;;
73684;SDS011;61985;51.070;14.064;2023-01-16T18:14:21;3.85;;;1.33;;
73684;SDS011;61985;51.070;14.064;2023-01-16T18:17:07;2.20;;;1.40;;
73684;SDS011;61985;51.070;14.064;2023-01-16T18:19:48;7.10;;;2.30;;
73684;SDS011;61985;51.070;14.064;2023-01-16T18:22:14;4.82;;;2.13;;
73684;SDS011;61985;51.070;14.064;2023-01-16T18:24:40;2.97;;;1.65;;
73684;SDS011;61985;51.070;14.064;2023-01-16T18:27:07;2.22;;;1.30;;
73684;SDS011;61985;51.070;14.064;2023-01-16T18:29:34;3.63;;;1.73;;
73684;SDS011;61985;51.070;14.064;2023-01-16T18:32:00;3.55;;;1.95;;
73684;SDS011;61985;51.070;14.064;2023-01-16T18:34:51;4.68;;;2.13;;